Terminal Aerodrome Forecast
Issued by NWS New Orleans/Baton Rouge, LA

Home | Current Version | Previous Version | Text Only | Print | Product List | Glossary On
Versions: 1 2 3 4 5 6 7 8 9 10 11 12 13 14 15 16 17 18 19 20 21 22 23 24 25
000
FTUS44 KLIX 030520
TAFNEW
TAF
KNEW 030520Z 0306/0406 14005KT P6SM SCT150 BKN250
     FM031430 13008KT P6SM BKN045
      TEMPO 0318/0322 4SM -TSRA BKN030CB
     FM040100 15006KT P6SM SCT110 BKN250=

USA.gov is the U.S. government's official web portal to all federal, state and local government web resources and services.